Cumming, IA (50061)

6:02 AM CDT on October 23, 2014 (GMT -0500)
Norwalk, IA (2mi SW) | Change Station
CLOSE
Current Station
Personal Weather Station
Location: Norwalk, IA
Elevation: 919 ft
Nearby Weather Stations

Elev 919 ft 41.46 °N, 93.71 °W | Updated 11 minutes ago

Overcast
Overcast
52.0 °F
Feels Like 52.0 °F
N
5.8
Wind Variable Wind from SSW

Today
High -- | Low -- °F
--% Chance of Precip.
Yesterday
High -- | Low -- °F
Precip. -- in
7:36 AM 6:21 PM
Waning Crescent, 0% visible
Pressure 30.04 in
Visibility 10.0 miles
Clouds Overcast 8500 ft
Dew Point 50 °F
Humidity 93%
Rainfall 0.18 in
Snow Depth Not available.
UV 0 out of 12
Pollen 1.70 out of 12
Air Quality Not available.
Flu Activity Sporadic
METAR KDSM 231054Z 17008KT 10SM OVC085 12/09 A3004 RMK AO2 SLP171 T01170094

More Conditions Fewer Conditions

Pressure 30.04 in
Visibility 10.0 miles
Clouds Overcast 8500 ft
Dew Point 50 °F
Humidity 93%
Rainfall 0.18 in
Snow Depth Not available.
UV 0 out of 12
Pollen 1.70 out of 12
Air Quality Not available.
Flu Activity Sporadic
METAR KDSM 231054Z 17008KT 10SM OVC085 12/09 A3004 RMK AO2 SLP171 T01170094

More Conditions Fewer Conditions

10-Day Weather Forecast

Almanac

Astronomy

Oct. 23, 2014 Rise Set
Actual Time 7:36 AM CDT 6:21 PM CDT
Civil Twilight 7:07 AM CDT 6:50 PM CDT
Nautical Twilight 6:35 AM CDT 7:22 PM CDT
Astronomical Twilight 6:03 AM CDT 7:54 PM CDT
Moon 7:16 AM CDT 6:23 PM CDT
Length of Visible Light 11h 42m
Length of Day
10h 45m
Tomorrow will be 2m 35s shorter.
Waning Crescent, 0% of the Moon is Illuminated
Today
Waning Crescent
Oct 23
New
Oct 30
First Quarter
Nov 6
Full
Nov 14
Last Quarter

Today's Extremes

State Highs State Lows

Community

WunderPhotos

Upload Photos

1,764,204 photos uploaded!

Nearby

Snow Depth

Station Depth Elevation
No new snow has been reported.

Earthquake Activity

City Distance Mag. Time & Date
No recent earthquake activity has been reported nearby.
Minimum magnitude displayed is 2.5.

Coastal Water Temperatures

Place Temperature
No Stations Reporting

Nearby Weather Stations